General Aviation Weather

Text Reports

Enter one or more of the following location identifiers separated by a space:

Zip Code, Four-Character ICAO or Three-Character IATA airport codes.

METAR - Aviation Routine Weather Report
KADU - Audubon, Iowa
Updated at 7:35 PM GMT on August 20, 2014 (2:35 PM CDT):
METAR KADU 201935Z AUTO 17010KT 10SM CLR 28/24 A2987 RMK AO2
TAF - Terminal Area Forecast
KADU - Audubon, Iowa
Updated at 7:35 PM GMT on August 20, 2014 (2:35 PM CDT):
No TAF is currently available for this location.
Decoded:
No decoded TAF is available.
PIREP - Pilot Weather Report
KADU - Audubon, Iowa
Updated at 7:35 PM GMT on August 20, 2014 (2:35 PM CDT):
No PIREP is currently available for this location.
AIRMET - Airmens Meteorological Information
KADU - Audubon, Iowa
Updated at 7:35 PM GMT on August 20, 2014 (2:35 PM CDT):
No AIRMET is currently available for this location.
SIGMET - Significant Meteorological Information
KADU - Audubon, Iowa
Updated at 7:35 PM GMT on August 20, 2014 (2:35 PM CDT):
No SIGMET is currently available for this location.
NOTAM - Notice to Airmen
KADU - Audubon, Iowa
Updated at 7:35 PM GMT on August 20, 2014 (2:35 PM CDT):
No NOTAM is currently available for this location.
Forecast Area
KADU - Audubon, Iowa
Updated at 7:35 PM GMT on August 20, 2014 (2:35 PM CDT):
No NOTAM is currently available for this location.
Aviation Weather Maps